Time;durP1;ratioP1;P1;durP2;ratioP2;P2;SDS_P1;SDS_P2;PMS_P1;PMS_P2;Temp;Humidity;BMP_temperature;BMP_pressure;BME280_temperature;BME280_humidity;BME280_pressure;Samples;Min_cycle;Max_cycle;Signal;HPM_P1;HPM_P2
2022/04/26 03:37:13;;;;;;;23.63;9.40;;;9.30;99.90;;;;;;5034835;28;20063;-74
2022/04/26 03:39:42;;;;;;;18.40;8.93;;;9.40;99.90;;;;;;5034343;28;20050;-74
2022/04/26 03:42:08;;;;;;;20.42;9.35;;;9.50;99.90;;;;;;5034595;28;20045;-74
2022/04/26 03:44:33;;;;;;;23.77;9.77;;;9.50;99.90;;;;;;5034529;28;20059;-74
2022/04/26 03:46:59;;;;;;;20.23;8.98;;;9.30;99.90;;;;;;5034754;28;20053;-75
2022/04/26 03:49:25;;;;;;;19.63;9.93;;;9.40;99.90;;;;;;5034505;28;20141;-74
2022/04/26 03:51:54;;;;;;;17.85;8.77;;;9.40;99.90;;;;;;5034758;28;20057;-74
2022/04/26 03:54:21;;;;;;;22.27;9.88;;;9.50;99.90;;;;;;5034403;28;20053;-74
2022/04/26 03:56:47;;;;;;;17.88;8.75;;;9.50;99.90;;;;;;5034057;28;20049;-74
2022/04/26 03:59:13;;;;;;;15.48;7.90;;;9.40;99.90;;;;;;5035622;28;20485;-74
2022/04/26 04:01:39;;;;;;;19.38;9.43;;;9.50;99.90;;;;;;5034427;28;20060;-74
2022/04/26 04:04:05;;;;;;;19.10;8.07;;;9.50;99.90;;;;;;5033893;28;20049;-74
2022/04/26 04:06:31;;;;;;;23.27;9.15;;;9.50;99.90;;;;;;5034063;28;20103;-74
2022/04/26 04:08:57;;;;;;;20.98;8.00;;;9.30;99.90;;;;;;5034137;28;20139;-74
2022/04/26 04:11:23;;;;;;;15.82;7.47;;;9.50;99.90;;;;;;5034082;28;20500;-74
2022/04/26 04:13:48;;;;;;;20.58;6.85;;;9.40;99.90;;;;;;5034029;28;20053;-74
2022/04/26 04:16:14;;;;;;;16.35;6.90;;;9.50;99.90;;;;;;5034024;28;20374;-74
2022/04/26 04:21:24;;;;;;;15.75;6.60;;;9.60;99.90;;;;;;5032254;28;20060;-75
2022/04/26 04:23:49;;;;;;;21.23;7.70;;;9.70;99.90;;;;;;5031997;28;20054;-75
2022/04/26 04:26:15;;;;;;;17.33;6.13;;;9.60;99.90;;;;;;5032956;28;20057;-74
2022/04/26 04:28:41;;;;;;;20.80;7.32;;;9.70;99.90;;;;;;5033505;28;20507;-74
2022/04/26 04:31:08;;;;;;;17.05;6.35;;;9.70;99.90;;;;;;5034640;28;20059;-74
2022/04/26 04:33:34;;;;;;;18.85;6.07;;;9.70;99.90;;;;;;5033809;28;20049;-74
2022/04/26 04:36:00;;;;;;;14.15;6.60;;;9.60;99.90;;;;;;5033624;28;20052;-74
2022/04/26 04:38:26;;;;;;;18.33;6.07;;;9.60;99.90;;;;;;5033624;28;20511;-75
2022/04/26 04:40:53;;;;;;;18.58;5.82;;;9.60;99.90;;;;;;5033185;28;20049;-74
2022/04/26 04:43:19;;;;;;;12.27;5.57;;;9.60;99.90;;;;;;5033490;28;20057;-74
2022/04/26 04:45:45;;;;;;;15.60;5.47;;;9.60;99.90;;;;;;5032992;28;20049;-74
2022/04/26 04:48:10;;;;;;;17.15;5.63;;;9.60;99.90;;;;;;5033085;28;20511;-74
2022/04/26 04:50:36;;;;;;;12.38;4.90;;;9.80;99.90;;;;;;5033380;28;20074;-74
2022/04/26 04:53:02;;;;;;;12.57;4.40;;;9.80;99.90;;;;;;5033236;28;20089;-74
2022/04/26 04:55:28;;;;;;;13.80;5.40;;;9.50;99.90;;;;;;5032952;28;20049;-74
2022/04/26 04:57:53;;;;;;;14.38;4.40;;;9.40;99.90;;;;;;5016385;28;20199;-74
2022/04/26 05:00:19;;;;;;;18.92;5.15;;;9.50;99.90;;;;;;5032895;28;20404;-74
2022/04/26 05:02:45;;;;;;;14.45;4.45;;;9.60;99.90;;;;;;5033061;28;20046;-74
2022/04/26 05:05:11;;;;;;;14.43;4.88;;;9.60;99.90;;;;;;5033077;28;20049;-74
2022/04/26 05:07:37;;;;;;;13.70;4.75;;;9.60;99.90;;;;;;5032850;28;20133;-74
2022/04/26 05:10:04;;;;;;;18.80;5.38;;;9.70;99.90;;;;;;5032971;28;20111;-74
2022/04/26 05:12:29;;;;;;;14.10;5.22;;;9.70;99.90;;;;;;5032978;28;20061;-74
2022/04/26 05:14:55;;;;;;;15.18;4.32;;;9.90;99.90;;;;;;5033094;28;20056;-74
2022/04/26 05:17:21;;;;;;;12.98;4.35;;;9.90;99.90;;;;;;5032971;28;20077;-74
2022/04/26 05:19:46;;;;;;;16.73;4.82;;;9.90;99.90;;;;;;5032926;28;20079;-74
2022/04/26 05:22:14;;;;;;;16.00;4.60;;;9.80;99.90;;;;;;5032497;28;20381;-74
2022/04/26 05:24:59;;;;;;;17.98;5.25;;;9.90;99.90;;;;;;5032799;28;20068;-74
2022/04/26 05:27:26;;;;;;;13.00;5.07;;;10.00;99.90;;;;;;5032242;28;20499;-74
2022/04/26 05:29:54;;;;;;;17.85;5.88;;;10.10;99.90;;;;;;5032787;28;20107;-74
2022/04/26 05:32:21;;;;;;;14.43;4.82;;;10.20;99.90;;;;;;5032776;28;20057;-74
2022/04/26 05:34:47;;;;;;;11.45;4.80;;;10.30;99.90;;;;;;5032390;28;20045;-75
2022/04/26 05:37:13;;;;;;;13.40;4.60;;;10.30;99.90;;;;;;5032679;28;20050;-74
2022/04/26 05:39:39;;;;;;;16.23;5.28;;;10.40;99.90;;;;;;5032434;28;20079;-74
2022/04/26 05:42:04;;;;;;;14.50;4.57;;;10.50;99.90;;;;;;5032333;28;20180;-74
2022/04/26 05:44:30;;;;;;;18.67;5.32;;;10.70;99.90;;;;;;5032812;28;20094;-75
2022/04/26 05:46:56;;;;;;;15.63;4.53;;;10.80;99.90;;;;;;5032488;28;20131;-74
2022/04/26 05:49:22;;;;;;;13.68;4.28;;;10.90;99.80;;;;;;5032492;28;20050;-74
2022/04/26 05:51:49;;;;;;;9.48;4.25;;;10.90;99.70;;;;;;5032573;28;20054;-74
2022/04/26 05:54:15;;;;;;;19.48;4.82;;;10.70;99.80;;;;;;5032470;28;20049;-74
2022/04/26 05:56:40;;;;;;;12.60;3.97;;;10.80;99.80;;;;;;5032166;28;20046;-74
2022/04/26 05:59:06;;;;;;;13.75;4.38;;;10.80;99.70;;;;;;5036201;28;20389;-74
2022/04/26 06:01:32;;;;;;;11.77;4.20;;;10.80;99.60;;;;;;5036596;28;20042;-74
2022/04/26 06:03:57;;;;;;;16.13;4.50;;;10.80;99.60;;;;;;5036444;28;20072;-74
2022/04/26 06:06:25;;;;;;;12.50;4.82;;;10.70;99.50;;;;;;5036531;28;20056;-74
2022/04/26 06:08:51;;;;;;;16.67;5.00;;;10.80;99.60;;;;;;5036053;28;20056;-74
2022/04/26 06:11:17;;;;;;;11.30;4.40;;;10.80;99.40;;;;;;5036355;28;20046;-74
2022/04/26 06:13:43;;;;;;;11.90;4.55;;;10.70;99.50;;;;;;5036273;28;20045;-74
2022/04/26 06:16:09;;;;;;;17.98;5.28;;;10.70;99.50;;;;;;5036256;28;20103;-74
2022/04/26 06:18:35;;;;;;;13.32;3.80;;;10.80;99.50;;;;;;5036208;28;20124;-74
2022/04/26 06:21:01;;;;;;;11.10;4.15;;;10.70;99.50;;;;;;5036103;28;20133;-74
2022/04/26 06:23:27;;;;;;;19.85;4.95;;;10.80;99.50;;;;;;5019532;28;20049;-75
2022/04/26 06:25:53;;;;;;;11.43;3.83;;;10.90;99.50;;;;;;5036005;28;20191;-74
2022/04/26 06:28:18;;;;;;;17.20;4.15;;;10.70;99.50;;;;;;5035087;28;20049;-74
2022/04/26 06:30:44;;;;;;;14.50;4.43;;;10.80;99.60;;;;;;5035989;28;20046;-74
2022/04/26 06:33:10;;;;;;;16.45;4.50;;;11.00;99.60;;;;;;5019450;28;20055;-75
2022/04/26 06:35:36;;;;;;;12.80;3.92;;;11.20;99.70;;;;;;5019184;28;20164;-74
2022/04/26 06:38:02;;;;;;;13.05;4.55;;;11.20;99.50;;;;;;5035479;28;20107;-74
2022/04/26 06:40:28;;;;;;;14.15;3.95;;;11.10;99.40;;;;;;5035560;28;20057;-74
2022/04/26 06:42:53;;;;;;;18.63;4.70;;;11.10;99.40;;;;;;5035434;28;20046;-74
2022/04/26 06:45:19;;;;;;;18.35;4.13;;;11.10;99.30;;;;;;5035646;28;20056;-74
2022/04/26 06:47:45;;;;;;;12.50;3.30;;;10.70;99.50;;;;;;5035380;28;20199;-75
2022/04/26 06:50:11;;;;;;;12.27;3.10;;;10.80;99.70;;;;;;5035587;28;20049;-74
2022/04/26 06:52:36;;;;;;;7.93;2.80;;;10.80;99.60;;;;;;5035607;28;20157;-74
2022/04/26 06:55:03;;;;;;;12.45;3.00;;;11.00;99.40;;;;;;5035504;28;20510;-73
2022/04/26 06:57:28;;;;;;;11.90;2.80;;;11.10;99.30;;;;;;5018702;28;20053;-74
2022/04/26 06:59:54;;;;;;;8.38;3.58;;;11.30;99.30;;;;;;5035410;28;20071;-73
2022/04/26 07:02:20;;;;;;;9.98;2.28;;;11.50;99.20;;;;;;5035218;28;20392;-75
2022/04/26 07:04:46;;;;;;;9.38;2.67;;;11.20;98.60;;;;;;5035233;28;20505;-74
2022/04/26 07:07:12;;;;;;;19.40;3.03;;;11.20;98.90;;;;;;5034812;28;20081;-76
2022/04/26 07:09:38;;;;;;;12.82;3.28;;;11.30;98.40;;;;;;5035197;28;20075;-78
2022/04/26 07:12:07;;;;;;;11.90;2.78;;;11.20;98.40;;;;;;5035154;28;20049;-77
2022/04/26 07:14:33;;;;;;;11.05;2.88;;;11.20;98.40;;;;;;5035245;28;20392;-77
2022/04/26 07:17:00;;;;;;;12.65;3.65;;;11.20;98.30;;;;;;5035098;28;20059;-77
2022/04/26 07:19:26;;;;;;;9.30;3.17;;;11.10;98.30;;;;;;5035317;28;20049;-78
2022/04/26 07:21:51;;;;;;;6.65;2.63;;;11.00;98.30;;;;;;5034450;28;20129;-78
2022/04/26 07:24:17;;;;;;;8.65;2.70;;;10.80;98.40;;;;;;5035118;28;20049;-78
2022/04/26 07:26:43;;;;;;;10.50;3.30;;;10.80;98.60;;;;;;5034525;28;20065;-78
2022/04/26 07:29:09;;;;;;;12.30;3.25;;;10.80;98.60;;;;;;5034722;28;20045;-75
2022/04/26 07:31:36;;;;;;;10.73;2.80;;;11.10;98.70;;;;;;5034796;28;20128;-77
2022/04/26 07:34:20;;;;;;;11.45;3.08;;;11.40;98.30;;;;;;5034726;28;20495;-77
2022/04/26 07:36:47;;;;;;;11.93;3.35;;;11.50;98.00;;;;;;5035173;28;20045;-76
2022/04/26 07:39:14;;;;;;;12.40;2.90;;;11.50;97.60;;;;;;5034665;28;20046;-76
2022/04/26 07:41:40;;;;;;;12.40;3.33;;;11.40;97.70;;;;;;5033915;28;20050;-78
2022/04/26 07:44:06;;;;;;;11.80;2.70;;;11.60;97.80;;;;;;5034391;28;20049;-79
2022/04/26 07:46:31;;;;;;;6.68;2.05;;;11.70;97.60;;;;;;5035046;28;20050;-78
2022/04/26 07:48:57;;;;;;;9.32;2.55;;;11.70;97.10;;;;;;5034595;28;20086;-78
2022/04/26 07:51:23;;;;;;;7.47;2.47;;;11.70;96.90;;;;;;5018327;28;20049;-78
2022/04/26 07:53:48;;;;;;;7.25;2.45;;;11.80;97.10;;;;;;5034606;28;20116;-78
2022/04/26 07:56:14;;;;;;;7.15;2.53;;;11.80;97.00;;;;;;5034377;28;20443;-78
2022/04/26 07:58:40;;;;;;;9.98;2.50;;;12.10;97.10;;;;;;5034028;28;20049;-78
2022/04/26 08:01:05;;;;;;;7.30;2.50;;;12.20;96.80;;;;;;5034425;28;20507;-79
2022/04/26 08:03:35;;;;;;;9.88;2.47;;;12.30;96.90;;;;;;5034277;28;20042;-78
2022/04/26 08:06:01;;;;;;;11.25;2.78;;;12.20;96.20;;;;;;5034163;28;20054;-78
2022/04/26 08:08:27;;;;;;;9.25;2.50;;;11.90;96.30;;;;;;5033900;28;20053;-76
2022/04/26 08:10:52;;;;;;;7.60;2.38;;;11.70;96.30;;;;;;5034192;28;20480;-74
2022/04/26 08:13:18;;;;;;;8.20;3.00;;;11.70;96.30;;;;;;5034073;28;20393;-79
2022/04/26 08:15:44;;;;;;;8.25;2.67;;;12.00;96.60;;;;;;5034063;28;20523;-77
2022/04/26 08:18:11;;;;;;;11.45;2.55;;;12.20;96.30;;;;;;5033896;28;20049;-78
2022/04/26 08:20:37;;;;;;;7.55;2.25;;;12.40;96.40;;;;;;5033174;28;20048;-78
2022/04/26 08:23:06;;;;;;;8.40;2.50;;;12.60;96.50;;;;;;5034756;28;20057;-75
2022/04/26 08:28:18;;;;;;;7.32;2.30;;;13.10;96.00;;;;;;5033327;28;20099;-75
2022/04/26 08:30:44;;;;;;;7.22;2.95;;;13.00;96.00;;;;;;5034135;28;20038;-75
2022/04/26 08:33:10;;;;;;;12.05;2.88;;;12.80;95.90;;;;;;5034736;28;20053;-76
2022/04/26 08:35:36;;;;;;;6.93;2.60;;;12.70;95.90;;;;;;5017261;28;20041;-76
2022/04/26 08:38:01;;;;;;;9.73;2.70;;;12.90;95.90;;;;;;5033593;28;20056;-76
2022/04/26 08:40:27;;;;;;;15.02;2.95;;;12.80;95.90;;;;;;5033561;28;20041;-75
2022/04/26 08:42:53;;;;;;;7.03;2.20;;;12.70;95.90;;;;;;5033216;28;20049;-75
2022/04/26 08:45:20;;;;;;;6.85;3.25;;;12.60;96.10;;;;;;5033497;28;20439;-75
2022/04/26 08:53:23;;;;;;;10.05;2.40;;;12.40;96.00;;;;;;5033501;28;20148;-76
2022/04/26 08:55:50;;;;;;;6.65;2.58;;;12.90;96.10;;;;;;5033279;28;20053;-77
2022/04/26 08:58:18;;;;;;;10.25;2.75;;;12.80;95.60;;;;;;5032927;28;20092;-77
2022/04/26 09:01:09;;;;;;;6.15;2.67;;;12.50;95.90;;;;;;5033190;28;20128;-77
2022/04/26 09:03:54;;;;;;;7.40;2.20;;;12.20;95.60;;;;;;5041729;28;20045;-77
2022/04/26 09:06:33;;;;;;;6.80;2.80;;;12.20;95.90;;;;;;5033260;28;20453;-76
2022/04/26 09:09:10;;;;;;;8.63;2.53;;;12.40;96.30;;;;;;5018463;28;20041;-76
2022/04/26 09:11:36;;;;;;;15.32;3.40;;;12.70;95.60;;;;;;5032733;28;20129;-76
2022/04/26 09:14:05;;;;;;;6.45;2.17;;;12.90;95.50;;;;;;5032943;28;20508;-77
2022/04/26 09:16:31;;;;;;;9.00;2.58;;;13.10;95.50;;;;;;5033137;28;20473;-76
2022/04/26 09:19:06;;;;;;;10.50;2.70;;;13.30;95.30;;;;;;5032877;28;20056;-76
2022/04/26 09:21:33;;;;;;;8.73;2.40;;;13.40;95.10;;;;;;5033025;28;20053;-77
2022/04/26 09:24:06;;;;;;;6.90;3.28;;;13.70;95.30;;;;;;5032422;28;20054;-76
2022/04/26 09:26:37;;;;;;;9.25;2.58;;;13.70;94.90;;;;;;5016147;28;20053;-76
2022/04/26 09:29:08;;;;;;;7.60;2.47;;;13.50;94.60;;;;;;5033038;28;20060;-77
2022/04/26 09:31:35;;;;;;;7.07;2.13;;;13.60;94.80;;;;;;5032705;28;20484;-77
2022/04/26 09:34:05;;;;;;;8.85;2.00;;;13.70;94.30;;;;;;5032748;28;20049;-82
2022/04/26 09:36:46;;;;;;;5.32;2.50;;;13.80;94.50;;;;;;5032748;28;20042;-77
2022/04/26 09:39:17;;;;;;;7.25;1.90;;;14.30;94.90;;;;;;5032381;28;20049;-77
2022/04/26 09:41:49;;;;;;;5.43;2.38;;;14.60;94.40;;;;;;5032774;28;20041;-77
2022/04/26 09:44:15;;;;;;;11.77;2.47;;;14.40;94.40;;;;;;5032544;28;20484;-77
2022/04/26 09:46:41;;;;;;;16.55;2.60;;;14.00;94.40;;;;;;5033689;28;20104;-77
2022/04/26 09:49:10;;;;;;;7.20;2.47;;;13.90;94.50;;;;;;5032615;28;20088;-78
2022/04/26 09:51:40;;;;;;;6.90;2.13;;;14.10;95.00;;;;;;5033147;28;20056;-76
2022/04/26 09:54:06;;;;;;;10.00;2.60;;;14.40;94.90;;;;;;5032489;28;20053;-84
2022/04/26 09:56:33;;;;;;;7.32;1.98;;;14.40;94.70;;;;;;5032177;28;20127;-78
2022/04/26 09:59:00;;;;;;;11.70;2.28;;;14.40;94.50;;;;;;5032057;28;20077;-78
2022/04/26 10:01:41;;;;;;;9.60;2.88;;;14.50;94.00;;;;;;5033064;28;20095;-78
2022/04/26 10:04:15;;;;;;;8.52;2.80;;;14.90;94.40;;;;;;5032567;28;20107;-86
2022/04/26 10:06:43;;;;;;;10.80;2.13;;;14.80;94.00;;;;;;5016085;28;20103;-86
2022/04/26 10:09:10;;;;;;;6.75;2.28;;;14.70;94.20;;;;;;5049226;28;20045;-82
2022/04/26 10:11:36;;;;;;;9.35;2.20;;;13.90;93.70;;;;;;5033084;28;20053;-90
2022/04/26 10:14:08;;;;;;;7.15;2.15;;;13.60;94.00;;;;;;5033186;28;20045;-90
2022/04/26 10:16:34;;;;;;;7.10;2.88;;;13.50;93.90;;;;;;5032533;28;20048;-83
2022/04/26 10:19:07;;;;;;;5.70;2.00;;;13.70;93.80;;;;;;5032296;28;20049;-83
2022/04/26 10:21:35;;;;;;;6.45;2.28;;;14.10;94.00;;;;;;5032327;28;20400;-83
2022/04/26 10:24:04;;;;;;;5.43;2.00;;;14.30;93.70;;;;;;5031522;28;20057;-83
2022/04/26 10:26:36;;;;;;;4.68;2.17;;;14.40;93.80;;;;;;5032094;28;20119;-83
2022/04/26 10:29:12;;;;;;;7.47;2.70;;;14.10;93.90;;;;;;5032123;28;20042;-83
2022/04/26 10:31:43;;;;;;;6.85;2.40;;;14.00;93.40;;;;;;5032210;28;20061;-83
2022/04/26 10:34:24;;;;;;;8.30;1.92;;;13.80;93.60;;;;;;5032277;28;20118;-84
2022/04/26 10:37:09;;;;;;;5.13;2.30;;;13.80;93.80;;;;;;5032210;28;20076;-84
2022/04/26 10:39:39;;;;;;;9.88;2.50;;;14.30;93.80;;;;;;5032356;28;20049;-84
2022/04/26 10:42:26;;;;;;;6.15;2.20;;;14.90;93.50;;;;;;5032126;28;20107;-83
2022/04/26 10:45:14;;;;;;;9.30;2.20;;;15.00;93.50;;;;;;5035095;28;20053;-83
2022/04/26 10:47:40;;;;;;;7.13;2.25;;;14.80;93.20;;;;;;5035591;28;20046;-83
2022/04/26 10:50:06;;;;;;;6.95;2.45;;;14.80;93.50;;;;;;5035870;28;20096;-86
2022/04/26 10:52:38;;;;;;;10.35;2.67;;;14.60;93.50;;;;;;5035631;28;20085;-77
2022/04/26 10:55:07;;;;;;;7.65;2.20;;;14.20;93.50;;;;;;5035603;28;20041;-76
2022/04/26 10:57:43;;;;;;;8.43;2.05;;;14.30;93.00;;;;;;5035456;28;20053;-89
2022/04/26 11:00:14;;;;;;;8.30;2.08;;;14.90;93.00;;;;;;5035969;28;20049;-89
2022/04/26 11:02:42;;;;;;;4.28;1.65;;;15.00;92.70;;;;;;5035938;28;20045;-89
2022/04/26 11:05:13;;;;;;;7.10;2.00;;;15.20;92.60;;;;;;5036082;28;20554;-89
2022/04/26 11:07:41;;;;;;;12.07;2.05;;;15.00;92.50;;;;;;5035533;28;20049;-88
2022/04/26 11:10:09;;;;;;;5.03;1.85;;;15.30;93.30;;;;;;5035709;28;20103;-89
2022/04/26 11:12:37;;;;;;;5.90;1.88;;;15.20;92.70;;;;;;5035691;28;20041;-88
2022/04/26 11:15:07;;;;;;;25.90;3.30;;;15.50;92.50;;;;;;5035243;28;20081;-86
2022/04/26 11:17:34;;;;;;;7.43;2.55;;;15.80;93.20;;;;;;5038353;28;20385;-91
2022/04/26 11:20:06;;;;;;;7.00;2.35;;;15.60;92.70;;;;;;5037089;28;20053;-75
2022/04/26 11:22:32;;;;;;;8.00;2.47;;;15.20;92.60;;;;;;5035210;28;20084;-74
2022/04/26 11:30:39;;;;;;;4.72;1.92;;;15.90;92.10;;;;;;5035054;28;20057;-75
2022/04/26 11:33:07;;;;;;;5.72;2.88;;;16.50;92.20;;;;;;5035114;28;20053;-76
2022/04/26 11:35:35;;;;;;;7.45;2.15;;;16.70;91.90;;;;;;5037695;28;20045;-78
2022/04/26 11:38:06;;;;;;;8.45;2.30;;;16.80;92.10;;;;;;5038165;28;20052;-76
2022/04/26 11:40:36;;;;;;;5.57;2.45;;;16.40;92.00;;;;;;5034465;28;20045;-76
2022/04/26 11:43:13;;;;;;;8.52;2.10;;;16.10;92.30;;;;;;5034692;28;20049;-76
2022/04/26 11:45:47;;;;;;;4.22;2.33;;;16.10;91.90;;;;;;5034635;28;20038;-82
2022/04/26 11:48:15;;;;;;;21.58;2.47;;;15.80;91.70;;;;;;5034393;28;20500;-76
2022/04/26 11:50:43;;;;;;;10.02;2.08;;;15.70;91.90;;;;;;5034522;28;20054;-78
2022/04/26 11:53:11;;;;;;;5.50;2.05;;;15.60;91.80;;;;;;5034226;28;20400;-77
2022/04/26 11:55:41;;;;;;;5.45;1.60;;;16.30;91.60;;;;;;5033196;28;20045;-76
2022/04/26 11:58:14;;;;;;;13.25;2.40;;;16.90;91.90;;;;;;5034209;28;20481;-77
2022/04/26 12:00:52;;;;;;;7.10;1.80;;;17.70;91.50;;;;;;5034331;28;20049;-73
2022/04/26 12:03:19;;;;;;;8.70;2.17;;;17.80;91.40;;;;;;5034299;28;20107;-77
2022/04/26 12:05:46;;;;;;;11.85;1.92;;;17.70;91.90;;;;;;5033957;28;20057;-76
2022/04/26 12:08:12;;;;;;;7.50;1.80;;;18.20;91.30;;;;;;5035211;28;20385;-77
2022/04/26 12:10:38;;;;;;;6.68;1.85;;;18.50;91.80;;;;;;5034315;28;20191;-77
2022/04/26 12:13:05;;;;;;;6.97;1.92;;;18.60;91.60;;;;;;5035095;28;20469;-78
2022/04/26 12:15:33;;;;;;;6.55;1.70;;;18.60;90.90;;;;;;5033742;28;20045;-77
2022/04/26 12:18:13;;;;;;;4.20;2.08;;;17.90;90.70;;;;;;5034969;28;20049;-77
2022/04/26 12:21:00;;;;;;;6.40;1.88;;;18.00;91.00;;;;;;5034358;28;20053;-77
2022/04/26 12:23:27;;;;;;;6.57;1.70;;;18.50;91.20;;;;;;5033778;28;20068;-77
2022/04/26 12:26:04;;;;;;;5.90;2.25;;;18.70;90.70;;;;;;5050194;28;20045;-77
2022/04/26 12:28:30;;;;;;;5.00;1.73;;;18.50;91.30;;;;;;5034501;28;20045;-79
2022/04/26 12:30:57;;;;;;;6.13;1.88;;;18.60;91.10;;;;;;5034750;28;20392;-77
2022/04/26 12:33:28;;;;;;;6.82;1.80;;;18.00;90.80;;;;;;5034137;28;20050;-77
2022/04/26 12:36:05;;;;;;;5.00;1.70;;;17.80;91.10;;;;;;5033836;28;20427;-77
2022/04/26 12:38:44;;;;;;;3.75;1.58;;;17.60;90.80;;;;;;5033784;28;20057;-77
2022/04/26 12:41:10;;;;;;;3.67;2.00;;;17.70;90.90;;;;;;5033602;28;20053;-77
2022/04/26 12:43:37;;;;;;;3.63;1.73;;;18.20;90.70;;;;;;5033290;28;20049;-77
2022/04/26 12:46:06;;;;;;;5.78;1.67;;;18.40;91.30;;;;;;5033546;28;20082;-77
2022/04/26 12:51:20;;;;;;;6.40;1.98;;;17.60;90.60;;;;;;5033784;28;20057;-77
2022/04/26 12:53:47;;;;;;;5.22;1.67;;;17.50;90.50;;;;;;5033328;28;20122;-77
2022/04/26 12:56:14;;;;;;;4.22;1.55;;;17.80;90.20;;;;;;5033300;28;20053;-77
2022/04/26 12:58:42;;;;;;;5.40;1.73;;;17.60;90.40;;;;;;5032912;28;20057;-77
2022/04/26 13:01:08;;;;;;;4.40;1.92;;;18.30;90.40;;;;;;5033186;28;20132;-75
2022/04/26 13:03:35;;;;;;;9.38;1.88;;;18.90;90.70;;;;;;5034025;28;20136;-76
2022/04/26 13:06:11;;;;;;;3.22;1.40;;;19.10;90.80;;;;;;5033201;28;20072;-75
2022/04/26 13:08:39;;;;;;;6.65;2.65;;;19.40;90.30;;;;;;5034259;28;20045;-75
2022/04/26 13:11:06;;;;;;;6.82;2.42;;;19.40;90.40;;;;;;5032998;28;20472;-76
2022/04/26 13:13:33;;;;;;;5.68;2.55;;;19.70;90.50;;;;;;5034175;28;20057;-76
2022/04/26 13:15:59;;;;;;;5.13;1.85;;;19.80;90.00;;;;;;5033019;28;20052;-73
2022/04/26 13:18:25;;;;;;;5.38;1.95;;;19.20;90.00;;;;;;5033879;28;20491;-72
2022/04/26 13:20:54;;;;;;;12.18;2.08;;;18.90;90.20;;;;;;5033118;28;20045;-92
2022/04/26 13:23:20;;;;;;;6.70;2.08;;;18.40;91.00;;;;;;5033390;28;20061;-93
2022/04/26 13:25:46;;;;;;;7.25;2.10;;;17.10;90.70;;;;;;5033872;28;20128;-91
2022/04/26 13:28:12;;;;;;;5.53;1.88;;;17.00;90.90;;;;;;5032931;28;20084;-91
2022/04/26 13:30:38;;;;;;;4.47;1.70;;;16.60;90.50;;;;;;5033233;28;20115;-88
2022/04/26 13:33:04;;;;;;;8.95;1.98;;;16.80;90.90;;;;;;5032961;28;20087;-88
2022/04/26 13:35:30;;;;;;;5.85;1.80;;;17.00;91.60;;;;;;5032985;28;20045;-83
2022/04/26 13:37:58;;;;;;;8.20;2.10;;;17.40;91.20;;;;;;5033018;28;20068;-85
2022/04/26 13:40:24;;;;;;;5.70;1.90;;;16.90;90.90;;;;;;5032921;28;20122;-85
2022/04/26 13:42:51;;;;;;;5.10;1.90;;;16.90;91.60;;;;;;5016287;28;20485;-84
2022/04/26 13:45:17;;;;;;;7.57;2.30;;;16.60;91.30;;;;;;5032921;28;20046;-85
2022/04/26 13:47:45;;;;;;;6.80;2.10;;;16.80;91.50;;;;;;5032461;28;20476;-85
2022/04/26 13:50:12;;;;;;;7.10;2.05;;;16.70;91.50;;;;;;5032839;28;20103;-85
2022/04/26 13:52:40;;;;;;;5.55;2.20;;;17.00;91.30;;;;;;5032609;28;20061;-77
2022/04/26 13:55:07;;;;;;;6.38;1.90;;;16.30;91.20;;;;;;5032658;28;20179;-77
2022/04/26 13:57:33;;;;;;;10.07;2.60;;;16.40;91.50;;;;;;5033026;28;20052;-77
2022/04/26 13:59:59;;;;;;;5.50;2.20;;;16.40;91.80;;;;;;5032523;28;20128;-75
2022/04/26 14:02:25;;;;;;;5.80;2.03;;;16.70;91.50;;;;;;5031459;28;20175;-75
2022/04/26 14:04:51;;;;;;;7.85;2.10;;;16.90;91.30;;;;;;5032289;28;20132;-74
2022/04/26 14:07:17;;;;;;;7.53;2.20;;;17.20;91.10;;;;;;5032112;28;20046;-74
2022/04/26 14:09:43;;;;;;;4.90;1.92;;;16.80;91.30;;;;;;5030783;28;20053;-76
2022/04/26 14:12:11;;;;;;;4.57;2.28;;;17.10;91.40;;;;;;5030162;28;20065;-80
2022/04/26 14:22:52;;;;;;;6.22;2.15;;;17.50;91.20;;;;;;5036116;28;20060;-77
2022/04/26 14:25:18;;;;;;;5.82;2.15;;;17.60;91.30;;;;;;5035843;28;20053;-77
2022/04/26 14:27:47;;;;;;;5.60;2.15;;;17.80;91.30;;;;;;5035647;28;20041;-77
2022/04/26 14:30:14;;;;;;;7.43;2.55;;;18.10;91.10;;;;;;5036051;28;20049;-77
2022/04/26 14:32:39;;;;;;;6.03;2.08;;;18.50;90.80;;;;;;5035738;28;20520;-77
2022/04/26 14:35:06;;;;;;;9.20;2.22;;;18.60;91.10;;;;;;5035869;28;20088;-77
2022/04/26 14:37:33;;;;;;;6.82;2.03;;;18.80;90.80;;;;;;5035928;28;20384;-77
2022/04/26 14:39:59;;;;;;;6.28;1.67;;;18.50;91.00;;;;;;5035834;28;20534;-78
2022/04/26 14:42:28;;;;;;;9.18;2.00;;;18.20;90.70;;;;;;5035841;28;20056;-78
2022/04/26 14:44:54;;;;;;;7.57;2.00;;;18.30;90.70;;;;;;5035742;28;20065;-76
2022/04/26 14:47:20;;;;;;;3.85;1.88;;;18.30;90.60;;;;;;5035751;28;20088;-78
2022/04/26 14:49:46;;;;;;;4.05;1.92;;;18.40;90.80;;;;;;5035699;28;20505;-78
2022/04/26 14:52:18;;;;;;;6.05;1.98;;;18.80;90.80;;;;;;5035632;28;20077;-77
2022/04/26 14:54:44;;;;;;;6.28;1.70;;;19.30;90.60;;;;;;5035612;28;20053;-77
2022/04/26 14:57:09;;;;;;;5.18;1.70;;;19.80;90.30;;;;;;5018898;28;20057;-78
2022/04/26 14:59:41;;;;;;;6.82;2.08;;;20.00;90.20;;;;;;5035031;28;20484;-77
2022/04/26 15:02:07;;;;;;;5.53;1.98;;;20.20;90.20;;;;;;5035174;28;20049;-78
2022/04/26 15:04:33;;;;;;;6.00;1.80;;;20.40;90.30;;;;;;5018994;28;20051;-78
2022/04/26 15:06:58;;;;;;;4.78;2.00;;;20.30;90.00;;;;;;5035490;28;20056;-78
2022/04/26 15:09:42;;;;;;;5.85;1.85;;;20.40;90.10;;;;;;5035313;28;20057;-78
2022/04/26 15:17:39;;;;;;;5.03;2.10;;;20.80;89.50;;;;;;5021649;28;20061;-76
2022/04/26 15:20:05;;;;;;;5.93;1.80;;;20.80;89.80;;;;;;5035146;28;20124;-76
2022/04/26 15:22:31;;;;;;;5.72;1.75;;;21.00;90.00;;;;;;5034511;28;20455;-73
2022/04/26 15:24:57;;;;;;;3.65;1.60;;;21.30;89.40;;;;;;5035130;28;20085;-75
2022/04/26 15:27:22;;;;;;;4.95;1.80;;;21.20;90.00;;;;;;5034539;28;20045;-75
2022/04/26 15:29:49;;;;;;;5.38;1.48;;;20.80;89.10;;;;;;5033683;28;20048;-75
2022/04/26 15:32:15;;;;;;;5.43;1.85;;;21.10;89.30;;;;;;5034762;28;20046;-77
2022/04/26 15:34:41;;;;;;;4.00;1.65;;;21.20;88.80;;;;;;5034815;28;20400;-77
2022/04/26 15:37:07;;;;;;;8.63;2.10;;;20.90;89.40;;;;;;5051155;28;20045;-76
2022/04/26 15:39:34;;;;;;;5.30;1.70;;;21.40;89.10;;;;;;5034386;28;20583;-75
2022/04/26 15:42:00;;;;;;;4.00;1.60;;;21.70;88.80;;;;;;5035498;28;20056;-74
2022/04/26 15:44:26;;;;;;;4.43;1.75;;;21.60;89.00;;;;;;5034429;28;20089;-76
2022/04/26 15:46:56;;;;;;;6.05;1.88;;;20.60;89.20;;;;;;5032561;28;20077;-76
2022/04/26 15:49:23;;;;;;;6.13;2.47;;;20.10;89.50;;;;;;5033670;28;20046;-79
2022/04/26 15:51:49;;;;;;;4.63;1.75;;;19.70;89.40;;;;;;5034132;28;20554;-72
2022/04/26 15:54:16;;;;;;;4.25;1.90;;;19.60;89.50;;;;;;5034426;28;20045;-73
2022/04/26 15:56:42;;;;;;;4.05;1.83;;;20.00;89.40;;;;;;5035117;28;20057;-75
2022/04/26 15:59:09;;;;;;;4.05;1.90;;;20.50;89.30;;;;;;5034031;28;20111;-74
2022/04/26 16:01:39;;;;;;;7.00;1.73;;;20.40;89.10;;;;;;5034378;28;20053;-75
2022/04/26 16:04:06;;;;;;;6.68;2.05;;;19.80;88.60;;;;;;5035681;28;20499;-73
2022/04/26 16:06:33;;;;;;;6.40;1.90;;;19.20;88.30;;;;;;5034413;28;20045;-73
2022/04/26 16:22:40;;;;;;;3.83;1.67;;;19.20;89.00;;;;;;5033935;28;20056;-77
2022/04/26 16:25:07;;;;;;;6.63;2.45;;;18.90;87.90;;;;;;5050019;28;20053;-77
2022/04/26 16:27:33;;;;;;;6.43;1.98;;;18.60;88.20;;;;;;5033431;28;20132;-76
2022/04/26 16:30:00;;;;;;;5.07;1.90;;;18.30;88.60;;;;;;5033780;28;20176;-74
2022/04/26 16:32:29;;;;;;;3.58;1.90;;;18.30;89.30;;;;;;5017337;28;20164;-73
2022/04/26 16:34:57;;;;;;;6.75;2.15;;;18.50;89.30;;;;;;5034697;28;20404;-75
2022/04/26 16:37:23;;;;;;;4.28;1.90;;;18.50;89.10;;;;;;5034677;28;20053;-74
2022/04/26 16:39:50;;;;;;;8.73;2.45;;;17.70;89.10;;;;;;5034653;28;20057;-73
2022/04/26 16:42:16;;;;;;;7.28;2.00;;;17.00;89.80;;;;;;5032683;28;20041;-73
2022/04/26 16:44:42;;;;;;;4.85;2.00;;;16.70;90.00;;;;;;5034536;28;20057;-69
2022/04/26 16:47:10;;;;;;;6.93;1.88;;;16.50;90.00;;;;;;5033069;28;20045;-76
2022/04/26 16:49:36;;;;;;;5.82;2.05;;;15.90;90.10;;;;;;5033400;28;20053;-76
2022/04/26 16:52:02;;;;;;;9.25;2.20;;;15.50;90.30;;;;;;5034349;28;20427;-76
2022/04/26 16:54:28;;;;;;;8.95;2.15;;;15.50;90.30;;;;;;5033359;28;20407;-75
2022/04/26 16:56:54;;;;;;;7.35;2.67;;;15.30;90.10;;;;;;5033326;28;20053;-77
2022/04/26 16:59:24;;;;;;;5.32;2.20;;;15.30;90.20;;;;;;5032975;28;20434;-76
2022/04/26 17:01:53;;;;;;;10.52;2.30;;;15.10;90.30;;;;;;5034418;28;20061;-75
2022/04/26 17:04:21;;;;;;;7.03;2.30;;;15.10;90.50;;;;;;5033120;28;20550;-75
2022/04/26 17:06:47;;;;;;;8.68;2.33;;;15.30;90.60;;;;;;5032871;28;20133;-77
2022/04/26 17:09:12;;;;;;;8.07;1.90;;;15.10;90.20;;;;;;5033706;28;20136;-74
2022/04/26 17:11:42;;;;;;;7.10;2.10;;;14.50;90.50;;;;;;5034125;28;20053;-74